Time;durP1;ratioP1;P1;durP2;ratioP2;P2;SDS_P1;SDS_P2;PMS_P1;PMS_P2;Temp;Humidity;BMP_temperature;BMP_pressure;BME280_temperature;BME280_humidity;BME280_pressure;Samples;Min_cycle;Max_cycle;Signal;HPM_P1;HPM_P2
2021/06/07 00:01:29;;;;;;;0.40;0.40;;;15.30;99.90;;;;;;5017096;28;20017;-94
2021/06/07 00:03:55;;;;;;;0.10;0.10;;;15.20;99.90;;;;;;5001423;28;20042;-94
2021/06/07 00:06:21;;;;;;;0.20;0.20;;;15.10;99.90;;;;;;5004423;28;20483;-95
2021/06/07 00:08:48;;;;;;;0.20;0.20;;;15.10;99.90;;;;;;5017128;28;20030;-93
2021/06/07 00:11:14;;;;;;;0.10;0.10;;;15.10;99.90;;;;;;5012555;28;20036;-94
2021/06/07 00:13:43;;;;;;;0.10;0.10;;;15.00;99.90;;;;;;4996337;28;20061;-93
2021/06/07 00:16:10;;;;;;;0.10;0.10;;;15.10;99.90;;;;;;5013818;28;20022;-94
2021/06/07 00:18:37;;;;;;;0.10;0.10;;;15.00;99.90;;;;;;5013329;28;20030;-94
2021/06/07 00:21:16;;;;;;;0.10;0.10;;;15.00;99.90;;;;;;5010062;28;20028;-94
2021/06/07 00:23:43;;;;;;;0.10;0.10;;;14.90;99.90;;;;;;5015966;28;20086;-95
2021/06/07 00:26:09;;;;;;;0.10;0.10;;;14.90;99.90;;;;;;5016730;28;20087;-95
2021/06/07 00:28:35;;;;;;;0.20;0.20;;;14.80;99.90;;;;;;5012726;28;20033;-94
2021/06/07 00:31:03;;;;;;;0.10;0.10;;;14.80;99.90;;;;;;5014329;28;20029;-94
2021/06/07 00:33:30;;;;;;;0.52;0.47;;;14.80;99.90;;;;;;5008979;28;20029;-94
2021/06/07 00:35:56;;;;;;;0.10;0.10;;;14.70;99.90;;;;;;5013040;28;20029;-93
2021/06/07 00:38:22;;;;;;;0.17;0.17;;;14.60;99.90;;;;;;5031123;28;20036;-94
2021/06/07 00:40:48;;;;;;;0.00;0.00;;;14.60;99.90;;;;;;5012456;28;20168;-94
2021/06/07 00:43:14;;;;;;;0.10;0.10;;;14.50;99.90;;;;;;5005240;28;20026;-94
2021/06/07 00:45:41;;;;;;;1.65;0.80;;;14.40;99.90;;;;;;5014522;28;20097;-95
2021/06/07 00:48:09;;;;;;;0.15;0.15;;;14.40;99.90;;;;;;5000307;28;20120;-94
2021/06/07 00:50:45;;;;;;;1.25;0.57;;;14.30;99.90;;;;;;5015758;28;20053;-94
2021/06/07 00:53:14;;;;;;;0.10;0.10;;;14.30;99.90;;;;;;5015370;28;20033;-94
2021/06/07 00:55:42;;;;;;;0.10;0.10;;;14.30;99.90;;;;;;5014826;28;20030;-94
2021/06/07 01:00:45;;;;;;;0.17;0.17;;;14.20;99.90;;;;;;5132170;22;20210;-94
2021/06/07 01:03:12;;;;;;;0.00;0.00;;;14.30;99.90;;;;;;5048756;28;20139;-94
2021/06/07 01:05:39;;;;;;;0.15;0.15;;;14.20;99.90;;;;;;5031883;28;20036;-96
2021/06/07 01:08:05;;;;;;;0.10;0.10;;;14.20;99.90;;;;;;5032511;28;20022;-95
2021/06/07 01:10:31;;;;;;;;;;;14.10;99.90;;;;;;5033455;28;20512;-95
2021/06/07 01:12:59;;;;;;;0.73;0.17;;;14.00;99.90;;;;;;5032216;28;19909;-94
2021/06/07 01:15:25;;;;;;;0.10;0.10;;;13.90;99.90;;;;;;5031658;28;20077;-93
2021/06/07 01:17:51;;;;;;;0.00;0.00;;;14.00;99.90;;;;;;5041261;28;20033;-93
2021/06/07 01:20:18;;;;;;;0.00;0.00;;;14.10;99.90;;;;;;5035379;28;20029;-94
2021/06/07 01:22:45;;;;;;;0.10;0.10;;;14.00;99.90;;;;;;5030325;28;20040;-92
2021/06/07 01:25:17;;;;;;;0.10;0.10;;;13.90;99.90;;;;;;5045998;28;20032;-90
2021/06/07 01:27:43;;;;;;;0.00;0.00;;;13.90;99.90;;;;;;5030258;28;20048;-93
2021/06/07 01:30:12;;;;;;;0.00;0.00;;;13.90;99.90;;;;;;5041745;28;20055;-95
2021/06/07 01:32:39;;;;;;;0.08;0.08;;;13.80;99.90;;;;;;5039041;28;20087;-94
2021/06/07 01:35:10;;;;;;;0.10;0.10;;;13.70;99.90;;;;;;5033785;28;20021;-95
2021/06/07 01:37:36;;;;;;;0.20;0.20;;;13.80;99.90;;;;;;5038786;28;20459;-94
2021/06/07 01:40:07;;;;;;;0.10;0.10;;;13.90;99.90;;;;;;5049024;28;20074;-92
2021/06/07 01:42:33;;;;;;;0.00;0.00;;;13.90;99.90;;;;;;5041833;28;20026;-93
2021/06/07 01:45:00;;;;;;;0.20;0.20;;;13.90;99.90;;;;;;5030682;28;20071;-93
2021/06/07 01:47:26;;;;;;;0.20;0.20;;;13.70;99.90;;;;;;5038855;28;20497;-93
2021/06/07 01:49:52;;;;;;;0.10;0.10;;;13.50;99.90;;;;;;5048106;28;20057;-93
2021/06/07 01:52:18;;;;;;;0.00;0.00;;;13.30;99.90;;;;;;5050057;28;20122;-93
2021/06/07 01:54:44;;;;;;;0.17;0.17;;;13.40;99.90;;;;;;5034352;28;20040;-93
2021/06/07 01:57:09;;;;;;;0.13;0.13;;;13.50;99.90;;;;;;5032904;28;20026;-93
2021/06/07 01:59:35;;;;;;;0.10;0.10;;;13.40;99.90;;;;;;5048944;28;20031;-93
2021/06/07 02:02:05;;;;;;;0.52;0.35;;;13.30;99.90;;;;;;5018975;28;20050;-92
2021/06/07 02:04:31;;;;;;;0.10;0.10;;;13.30;99.90;;;;;;5026586;28;20033;-92
2021/06/07 02:06:57;;;;;;;0.40;0.35;;;13.20;99.90;;;;;;5040340;28;20044;-93
2021/06/07 02:09:23;;;;;;;2.22;0.45;;;13.40;99.90;;;;;;5027170;28;20030;-93
2021/06/07 02:11:48;;;;;;;0.10;0.10;;;13.20;99.90;;;;;;5038052;28;20040;-93
2021/06/07 02:14:20;;;;;;;0.00;0.00;;;13.20;99.90;;;;;;5030004;28;20044;-94
2021/06/07 02:16:46;;;;;;;0.10;0.10;;;13.30;99.90;;;;;;5030310;28;20430;-93
2021/06/07 02:19:12;;;;;;;0.10;0.10;;;13.30;99.90;;;;;;5018217;28;20022;-93
2021/06/07 02:21:39;;;;;;;0.23;0.23;;;13.10;99.90;;;;;;5034581;28;20406;-93
2021/06/07 02:24:07;;;;;;;0.10;0.10;;;13.10;99.90;;;;;;5029827;28;20364;-93
2021/06/07 02:26:34;;;;;;;0.10;0.10;;;13.20;99.90;;;;;;5016570;28;20104;-93
2021/06/07 02:29:02;;;;;;;;;;;13.40;99.90;;;;;;5045756;28;20120;-93
2021/06/07 02:31:29;;;;;;;0.20;0.10;;;13.40;99.90;;;;;;5031124;28;19909;-93
2021/06/07 02:33:56;;;;;;;;;;;13.60;99.90;;;;;;5010161;28;20033;-93
2021/06/07 02:36:23;;;;;;;;;;;13.80;99.90;;;;;;5014793;28;19905;-93
2021/06/07 02:38:49;;;;;;;0.10;0.10;;;13.90;99.90;;;;;;5028920;28;19912;-92
2021/06/07 02:41:17;;;;;;;0.10;0.10;;;13.80;99.90;;;;;;5032564;28;20025;-92
2021/06/07 02:43:42;;;;;;;0.00;0.00;;;13.90;99.90;;;;;;5018034;28;20030;-92
2021/06/07 02:46:08;;;;;;;0.10;0.10;;;13.80;99.90;;;;;;5014525;28;20406;-93
2021/06/07 02:48:35;;;;;;;0.20;0.20;;;13.70;99.90;;;;;;5042283;28;20037;-93
2021/06/07 02:51:01;;;;;;;0.00;0.00;;;13.60;99.90;;;;;;5034667;28;20406;-94
2021/06/07 02:53:26;;;;;;;0.20;0.20;;;13.50;99.90;;;;;;5033421;28;20040;-94
2021/06/07 02:55:53;;;;;;;0.15;0.15;;;13.50;99.90;;;;;;5031482;28;20032;-93
2021/06/07 02:58:20;;;;;;;;;;;13.50;99.90;;;;;;5033421;28;20026;-94
2021/06/07 03:00:56;;;;;;;;;;;13.40;99.90;;;;;;5032217;28;19921;-93
2021/06/07 03:03:23;;;;;;;0.10;0.10;;;13.40;99.90;;;;;;5031492;28;19948;-94
2021/06/07 03:05:50;;;;;;;0.10;0.10;;;13.60;99.90;;;;;;5030378;28;20036;-93
2021/06/07 03:08:22;;;;;;;0.00;0.00;;;13.70;99.90;;;;;;5029491;28;20042;-93
2021/06/07 03:10:51;;;;;;;0.10;0.10;;;13.70;99.90;;;;;;5047762;28;20040;-93
2021/06/07 03:13:19;;;;;;;0.10;0.10;;;13.70;99.90;;;;;;5022482;28;20053;-93
2021/06/07 03:15:44;;;;;;;0.10;0.10;;;13.80;99.90;;;;;;5029715;28;20021;-93
2021/06/07 03:18:11;;;;;;;0.10;0.10;;;13.80;99.90;;;;;;5038592;28;20386;-94
2021/06/07 03:20:40;;;;;;;;;;;13.90;99.90;;;;;;5032281;28;20879;-93
2021/06/07 03:23:12;;;;;;;0.13;0.13;;;13.90;99.90;;;;;;5033693;28;20431;-93
2021/06/07 03:25:39;;;;;;;0.10;0.10;;;13.80;99.90;;;;;;5031718;28;20037;-93
2021/06/07 03:28:06;;;;;;;0.10;0.10;;;13.70;99.90;;;;;;5046935;28;20846;-94
2021/06/07 03:30:31;;;;;;;;;;;13.70;99.90;;;;;;5034392;28;20048;-94
2021/06/07 03:32:58;;;;;;;0.13;0.10;;;13.70;99.90;;;;;;5023376;28;20370;-93
2021/06/07 03:35:24;;;;;;;0.20;0.20;;;13.70;99.90;;;;;;5041958;28;20279;-93
2021/06/07 03:37:49;;;;;;;0.10;0.10;;;13.70;99.90;;;;;;5021994;28;20025;-94
2021/06/07 03:40:23;;;;;;;0.10;0.10;;;13.60;99.90;;;;;;5029648;28;20068;-93
2021/06/07 03:42:49;;;;;;;0.30;0.20;;;13.70;99.90;;;;;;5031203;28;20037;-92
2021/06/07 03:45:16;;;;;;;0.10;0.10;;;13.60;99.90;;;;;;5030979;28;20029;-92
2021/06/07 03:47:46;;;;;;;0.13;0.13;;;13.60;99.90;;;;;;5028662;28;20030;-93
2021/06/07 03:50:14;;;;;;;0.10;0.10;;;13.50;99.90;;;;;;5035525;28;20036;-92
2021/06/07 03:52:41;;;;;;;0.35;0.20;;;13.50;99.90;;;;;;5029544;28;20036;-93
2021/06/07 03:55:09;;;;;;;0.00;0.00;;;13.60;99.90;;;;;;5012527;28;20026;-92
2021/06/07 03:57:35;;;;;;;0.10;0.10;;;13.50;99.90;;;;;;5013783;28;20589;-92
2021/06/07 04:00:04;;;;;;;0.10;0.10;;;13.60;99.90;;;;;;5012984;28;20025;-92
2021/06/07 04:02:29;;;;;;;0.20;0.20;;;13.50;99.90;;;;;;5028503;28;20371;-92
2021/06/07 04:04:55;;;;;;;0.13;0.13;;;13.40;99.90;;;;;;5013067;28;20100;-92
2021/06/07 04:07:21;;;;;;;0.03;0.03;;;13.40;99.90;;;;;;5032276;28;20388;-91
2021/06/07 04:09:47;;;;;;;0.10;0.10;;;13.60;99.90;;;;;;5013023;28;20022;-92
2021/06/07 04:12:13;;;;;;;0.10;0.10;;;13.60;99.90;;;;;;5028256;28;20113;-92
2021/06/07 04:14:39;;;;;;;0.40;0.23;;;13.70;99.90;;;;;;5036003;28;20132;-92
2021/06/07 04:17:05;;;;;;;0.20;0.20;;;13.80;99.90;;;;;;5025980;28;20368;-93
2021/06/07 04:19:31;;;;;;;0.00;0.00;;;13.80;99.90;;;;;;5013118;28;20021;-93
2021/06/07 04:21:57;;;;;;;0.10;0.10;;;13.90;99.90;;;;;;5027835;28;20026;-93
2021/06/07 04:24:23;;;;;;;0.22;0.22;;;13.90;99.90;;;;;;5032898;28;20027;-93
2021/06/07 04:26:48;;;;;;;0.10;0.10;;;14.00;99.90;;;;;;5031282;28;20029;-93
2021/06/07 04:29:14;;;;;;;0.10;0.10;;;14.10;99.90;;;;;;5032558;28;20088;-94
2021/06/07 04:31:40;;;;;;;0.13;0.13;;;14.20;99.90;;;;;;5021077;28;20038;-94
2021/06/07 04:34:06;;;;;;;0.00;0.00;;;14.20;99.90;;;;;;5034058;28;20075;-94
2021/06/07 04:36:32;;;;;;;0.23;0.23;;;14.20;99.90;;;;;;5032964;28;20030;-94
2021/06/07 04:38:58;;;;;;;0.10;0.10;;;14.30;99.90;;;;;;5032723;28;20025;-94
2021/06/07 04:41:23;;;;;;;0.10;0.10;;;14.40;99.90;;;;;;5032104;28;20025;-93
2021/06/07 04:43:49;;;;;;;0.10;0.10;;;14.30;99.90;;;;;;5030319;28;20079;-92
2021/06/07 04:46:15;;;;;;;0.10;0.10;;;14.30;99.90;;;;;;5026453;28;20025;-90
2021/06/07 04:48:41;;;;;;;0.20;0.20;;;14.30;99.90;;;;;;5028782;28;20494;-90
2021/06/07 04:51:07;;;;;;;0.08;0.08;;;14.50;99.90;;;;;;5011990;28;20049;-90
2021/06/07 04:53:33;;;;;;;0.10;0.10;;;14.60;99.90;;;;;;5027917;28;20026;-91
2021/06/07 04:55:59;;;;;;;0.00;0.00;;;14.60;99.90;;;;;;5042816;28;20060;-90
2021/06/07 04:58:29;;;;;;;0.27;0.20;;;14.70;99.90;;;;;;5027711;28;20033;-89
2021/06/07 05:01:00;;;;;;;0.60;0.20;;;14.80;99.90;;;;;;5028181;28;20124;-88
2021/06/07 05:03:27;;;;;;;0.17;0.17;;;14.80;99.90;;;;;;5037672;28;20039;-88
2021/06/07 05:05:54;;;;;;;0.28;0.28;;;14.80;99.90;;;;;;5019993;28;20044;-88
2021/06/07 05:08:21;;;;;;;0.32;0.17;;;14.70;99.90;;;;;;5022354;28;20041;-88
2021/06/07 05:10:47;;;;;;;0.20;0.20;;;14.70;99.90;;;;;;5016253;28;20522;-88
2021/06/07 05:13:14;;;;;;;0.23;0.10;;;14.70;99.90;;;;;;5015695;28;20030;-88
2021/06/07 05:15:41;;;;;;;0.32;0.32;;;14.80;99.90;;;;;;5008983;28;20065;-92
2021/06/07 05:18:08;;;;;;;0.30;0.30;;;14.50;99.90;;;;;;5025776;28;20084;-92
2021/06/07 05:20:35;;;;;;;0.20;0.20;;;14.40;99.90;;;;;;5035637;28;20508;-91
2021/06/07 05:23:01;;;;;;;;;;;14.60;99.90;;;;;;5028735;28;20104;-91
2021/06/07 05:25:29;;;;;;;0.32;0.32;;;14.80;99.90;;;;;;5017109;28;19918;-90
2021/06/07 05:27:57;;;;;;;0.30;0.30;;;14.60;99.90;;;;;;5033749;28;20030;-88
2021/06/07 05:30:25;;;;;;;0.20;0.20;;;14.80;99.90;;;;;;5021540;28;20058;-90
2021/06/07 05:32:52;;;;;;;0.15;0.15;;;14.60;99.90;;;;;;5021518;28;20054;-89
2021/06/07 05:35:21;;;;;;;0.25;0.25;;;14.70;99.90;;;;;;5030882;28;20944;-88
2021/06/07 05:37:47;;;;;;;0.30;0.30;;;14.70;99.90;;;;;;5019959;28;20037;-87
2021/06/07 05:40:14;;;;;;;0.10;0.10;;;14.90;99.90;;;;;;5021043;28;20087;-89
2021/06/07 05:42:41;;;;;;;0.90;0.57;;;15.00;99.90;;;;;;5030080;28;20033;-89
2021/06/07 05:45:08;;;;;;;0.10;0.10;;;15.10;99.90;;;;;;5017357;28;20128;-91
2021/06/07 05:47:34;;;;;;;0.17;0.17;;;15.10;99.90;;;;;;5019122;28;20018;-87
2021/06/07 05:50:00;;;;;;;0.10;0.10;;;15.00;99.90;;;;;;5041905;28;20476;-86
2021/06/07 05:52:26;;;;;;;0.10;0.10;;;14.50;99.90;;;;;;5030329;28;20067;-93
2021/06/07 05:54:52;;;;;;;0.83;0.47;;;15.00;99.90;;;;;;5020606;28;20426;-93
2021/06/07 05:57:18;;;;;;;0.10;0.10;;;15.20;99.90;;;;;;5026271;28;20116;-93
2021/06/07 05:59:44;;;;;;;0.10;0.10;;;15.20;99.90;;;;;;5025559;28;20092;-92
2021/06/07 06:02:13;;;;;;;0.17;0.17;;;15.10;99.90;;;;;;5042215;28;20494;-91
2021/06/07 06:04:40;;;;;;;0.10;0.10;;;14.80;99.90;;;;;;5046043;28;20498;-92
2021/06/07 06:07:07;;;;;;;0.10;0.10;;;14.80;99.90;;;;;;5029822;28;20033;-90
2021/06/07 06:09:32;;;;;;;0.13;0.13;;;15.20;99.90;;;;;;5028110;28;20116;-92
2021/06/07 06:11:59;;;;;;;0.30;0.30;;;15.60;99.90;;;;;;5028313;28;20614;-90
2021/06/07 06:14:25;;;;;;;0.10;0.10;;;15.60;99.90;;;;;;5027718;28;20025;-90
2021/06/07 06:16:51;;;;;;;0.17;0.17;;;15.80;99.90;;;;;;5027501;28;20514;-90
2021/06/07 06:19:17;;;;;;;0.10;0.10;;;16.00;99.90;;;;;;5027365;28;20568;-90
2021/06/07 06:21:43;;;;;;;0.20;0.20;;;15.80;99.90;;;;;;5009789;28;20054;-88
2021/06/07 06:24:11;;;;;;;0.13;0.13;;;15.80;99.90;;;;;;5009249;28;20541;-88
2021/06/07 06:26:39;;;;;;;0.15;0.13;;;15.50;99.90;;;;;;5009279;28;20650;-88
2021/06/07 06:29:06;;;;;;;0.40;0.40;;;15.50;99.90;;;;;;5024307;28;20116;-88
2021/06/07 06:31:33;;;;;;;0.15;0.15;;;15.60;99.90;;;;;;5023744;28;20021;-89
2021/06/07 06:33:59;;;;;;;;;;;15.70;99.90;;;;;;5014652;28;20061;-89
2021/06/07 06:36:24;;;;;;;0.20;0.20;;;15.70;99.90;;;;;;5028489;28;19986;-89
2021/06/07 06:38:50;;;;;;;0.20;0.20;;;15.40;99.90;;;;;;5027239;28;20033;-88
2021/06/07 06:41:16;;;;;;;0.10;0.10;;;15.20;99.90;;;;;;5027894;28;20108;-89
2021/06/07 06:43:43;;;;;;;0.20;0.20;;;15.20;99.90;;;;;;5028340;28;20645;-90
2021/06/07 06:46:08;;;;;;;0.13;0.13;;;15.30;99.90;;;;;;5027512;28;20040;-90
2021/06/07 06:48:34;;;;;;;0.10;0.10;;;15.40;99.90;;;;;;5028333;28;20025;-91
2021/06/07 06:51:04;;;;;;;0.10;0.10;;;15.70;99.90;;;;;;5024941;28;20033;-89
2021/06/07 06:53:30;;;;;;;0.20;0.20;;;15.80;99.90;;;;;;5025288;28;20029;-91
2021/06/07 06:55:56;;;;;;;0.10;0.10;;;15.60;99.90;;;;;;5034426;28;20483;-88
2021/06/07 06:58:22;;;;;;;0.10;0.10;;;15.90;99.90;;;;;;5009110;28;20495;-89
2021/06/07 07:00:48;;;;;;;0.10;0.10;;;16.30;99.90;;;;;;5010702;28;20050;-89
2021/06/07 07:03:16;;;;;;;0.10;0.10;;;16.60;99.90;;;;;;5040385;28;20045;-89
2021/06/07 07:05:43;;;;;;;0.10;0.10;;;16.80;99.90;;;;;;5034953;28;20041;-90
2021/06/07 07:08:09;;;;;;;0.20;0.20;;;16.90;99.90;;;;;;5023958;28;20034;-88
2021/06/07 07:10:37;;;;;;;0.30;0.30;;;17.00;99.90;;;;;;5010332;28;20117;-89
2021/06/07 07:13:03;;;;;;;0.00;0.00;;;17.00;99.90;;;;;;5007477;28;20882;-89
2021/06/07 07:15:29;;;;;;;0.10;0.10;;;17.70;99.90;;;;;;5006018;28;20029;-89
2021/06/07 07:17:55;;;;;;;0.30;0.30;;;17.50;99.90;;;;;;5006599;28;20653;-89
2021/06/07 07:20:21;;;;;;;0.10;0.10;;;18.00;99.90;;;;;;5008210;28;20494;-88
2021/06/07 07:22:46;;;;;;;0.20;0.20;;;18.10;99.90;;;;;;5011716;28;20022;-90
2021/06/07 07:25:13;;;;;;;0.10;0.10;;;18.50;99.90;;;;;;5011804;28;20020;-89
2021/06/07 07:27:39;;;;;;;0.20;0.20;;;18.70;99.90;;;;;;5010126;28;20025;-89
2021/06/07 07:30:09;;;;;;;0.10;0.10;;;19.00;99.90;;;;;;5010737;28;20041;-89
2021/06/07 07:32:36;;;;;;;0.30;0.30;;;19.10;99.90;;;;;;5012020;28;20037;-89
2021/06/07 07:35:02;;;;;;;;;;;19.30;99.90;;;;;;5011931;28;20520;-89
2021/06/07 07:37:27;;;;;;;0.10;0.10;;;19.30;99.90;;;;;;5012064;28;19909;-89
2021/06/07 07:39:53;;;;;;;0.63;0.20;;;19.10;99.90;;;;;;5010231;28;20077;-88
2021/06/07 07:42:19;;;;;;;0.10;0.10;;;18.30;99.90;;;;;;5010599;28;20812;-88
2021/06/07 07:44:45;;;;;;;0.10;0.10;;;18.10;99.90;;;;;;5010290;28;20058;-88
2021/06/07 07:47:11;;;;;;;4.70;0.50;;;18.80;99.90;;;;;;5009665;28;20036;-88
2021/06/07 07:49:37;;;;;;;0.17;0.17;;;18.70;99.90;;;;;;5010367;28;20120;-88
2021/06/07 07:52:06;;;;;;;0.22;0.22;;;18.60;99.90;;;;;;5011516;28;20486;-88
2021/06/07 07:54:32;;;;;;;0.20;0.20;;;18.70;99.90;;;;;;5010905;28;20026;-89
2021/06/07 07:56:58;;;;;;;0.10;0.10;;;18.70;99.90;;;;;;5011578;28;20087;-88
2021/06/07 07:59:24;;;;;;;0.10;0.10;;;18.90;99.90;;;;;;5011490;28;20041;-88
2021/06/07 08:01:50;;;;;;;0.00;0.00;;;18.70;99.90;;;;;;5011296;28;20042;-89
2021/06/07 08:04:16;;;;;;;0.77;0.20;;;18.80;99.90;;;;;;5011416;28;20543;-89
2021/06/07 08:06:44;;;;;;;0.10;0.10;;;18.70;99.90;;;;;;5011370;28;20044;-88
2021/06/07 08:09:10;;;;;;;0.00;0.00;;;18.90;99.90;;;;;;5026320;28;20038;-88
2021/06/07 08:11:36;;;;;;;0.10;0.10;;;18.90;99.90;;;;;;5026456;28;20021;-88
2021/06/07 08:14:03;;;;;;;0.45;0.45;;;19.10;99.90;;;;;;5010947;28;20847;-88
2021/06/07 08:16:28;;;;;;;0.25;0.25;;;18.80;99.90;;;;;;5011030;28;20551;-88
2021/06/07 08:18:54;;;;;;;0.00;0.00;;;18.80;99.90;;;;;;5009764;28;20036;-88
2021/06/07 08:21:20;;;;;;;0.20;0.20;;;18.80;99.90;;;;;;5028593;28;20036;-88
2021/06/07 08:23:46;;;;;;;0.40;0.30;;;19.00;99.90;;;;;;5030986;28;20410;-88
2021/06/07 08:26:12;;;;;;;0.10;0.10;;;19.20;99.90;;;;;;5028762;28;20513;-88
2021/06/07 08:28:38;;;;;;;0.55;0.45;;;19.30;99.90;;;;;;5029535;28;20057;-88
2021/06/07 08:31:04;;;;;;;0.10;0.10;;;19.60;99.90;;;;;;5030519;28;20522;-88
2021/06/07 08:33:31;;;;;;;0.20;0.20;;;19.80;99.90;;;;;;5029029;28;20033;-88
2021/06/07 08:35:58;;;;;;;0.03;0.03;;;20.00;99.90;;;;;;5030758;28;20096;-88
2021/06/07 08:38:25;;;;;;;0.05;0.05;;;20.30;99.90;;;;;;5029024;28;20039;-89
2021/06/07 08:40:53;;;;;;;0.05;0.05;;;20.00;99.90;;;;;;5030270;28;20036;-89
2021/06/07 08:43:20;;;;;;;0.30;0.05;;;20.30;99.90;;;;;;5030329;28;20138;-89
2021/06/07 08:45:47;;;;;;;0.10;0.10;;;20.40;99.90;;;;;;5030403;28;20024;-88
2021/06/07 08:48:13;;;;;;;;;;;20.70;99.90;;;;;;5030650;28;20039;-89
2021/06/07 08:50:38;;;;;;;0.00;0.00;;;20.90;99.90;;;;;;5029248;28;20383;-88
2021/06/07 08:53:04;;;;;;;0.03;0.03;;;20.70;99.90;;;;;;5028753;28;20029;-89
2021/06/07 08:55:33;;;;;;;0.13;0.13;;;21.00;99.90;;;;;;5030081;28;20031;-89
2021/06/07 08:57:59;;;;;;;0.35;0.35;;;20.90;99.90;;;;;;5030167;28;20025;-89
2021/06/07 09:00:29;;;;;;;0.32;0.28;;;20.70;99.90;;;;;;5033743;28;20057;-89
2021/06/07 09:03:06;;;;;;;0.20;0.20;;;20.80;99.90;;;;;;5030310;28;20034;-89
2021/06/07 09:05:32;;;;;;;0.10;0.10;;;20.50;99.90;;;;;;5030017;28;20076;-89
2021/06/07 09:08:00;;;;;;;0.50;0.50;;;20.30;99.90;;;;;;5030326;28;20108;-89
2021/06/07 09:10:29;;;;;;;0.08;0.08;;;20.20;99.90;;;;;;5029787;28;20028;-89
2021/06/07 09:12:59;;;;;;;0.10;0.10;;;20.20;99.90;;;;;;5029524;28;20495;-89
2021/06/07 09:15:43;;;;;;;0.40;0.22;;;20.60;99.90;;;;;;5029827;28;20025;-89
2021/06/07 09:18:12;;;;;;;0.85;0.85;;;21.00;99.90;;;;;;5028763;28;20017;-89
2021/06/07 09:20:40;;;;;;;0.10;0.10;;;21.10;99.90;;;;;;5029805;28;20450;-89
2021/06/07 09:23:16;;;;;;;0.10;0.10;;;21.30;99.90;;;;;;5030177;28;20027;-89
2021/06/07 09:25:47;;;;;;;0.00;0.00;;;21.60;99.90;;;;;;5029886;28;20105;-88
2021/06/07 09:28:21;;;;;;;3.63;0.28;;;22.20;99.90;;;;;;5028694;28;20048;-89
2021/06/07 09:31:00;;;;;;;0.00;0.00;;;22.50;99.90;;;;;;5029802;28;20440;-89
2021/06/07 09:33:34;;;;;;;0.10;0.10;;;22.80;99.90;;;;;;5028411;28;20037;-89
2021/06/07 09:36:14;;;;;;;0.10;0.10;;;21.90;99.90;;;;;;5028833;28;20031;-87
2021/06/07 09:39:05;;;;;;;0.00;0.00;;;21.30;99.90;;;;;;5029630;28;20129;-88
2021/06/07 09:41:42;;;;;;;0.13;0.13;;;21.30;99.90;;;;;;5029733;28;20117;-89
2021/06/07 09:44:08;;;;;;;0.10;0.10;;;21.60;99.90;;;;;;5011880;28;20785;-88
2021/06/07 09:46:34;;;;;;;0.17;0.13;;;21.80;99.90;;;;;;5029827;28;20033;-89
2021/06/07 09:49:07;;;;;;;0.00;0.00;;;22.00;99.80;;;;;;5028591;28;20036;-88
2021/06/07 09:51:33;;;;;;;0.00;0.00;;;22.70;99.00;;;;;;5028509;28;20033;-88
2021/06/07 09:53:59;;;;;;;0.00;0.00;;;23.00;98.00;;;;;;5029781;28;20043;-87
2021/06/07 09:56:25;;;;;;;0.10;0.10;;;22.50;97.70;;;;;;5029688;28;20113;-87
2021/06/07 09:58:52;;;;;;;0.03;0.03;;;23.00;97.90;;;;;;5029130;28;20018;-87
2021/06/07 10:01:23;;;;;;;0.10;0.05;;;23.00;98.10;;;;;;5029263;28;20045;-87
2021/06/07 10:03:55;;;;;;;0.20;0.10;;;23.00;98.10;;;;;;5044711;28;20843;-87
2021/06/07 10:06:35;;;;;;;0.32;0.32;;;23.00;98.20;;;;;;5044353;28;20034;-88
2021/06/07 10:09:08;;;;;;;0.70;0.43;;;22.00;98.40;;;;;;5044680;28;20118;-87
2021/06/07 10:11:38;;;;;;;0.20;0.20;;;22.60;98.70;;;;;;5029476;28;20033;-87
2021/06/07 10:14:10;;;;;;;0.00;0.00;;;22.80;97.60;;;;;;5029022;28;20120;-86
2021/06/07 10:16:38;;;;;;;0.20;0.17;;;23.10;97.60;;;;;;5044825;28;20056;-88
2021/06/07 10:19:07;;;;;;;0.40;0.35;;;23.30;97.00;;;;;;5029218;28;20394;-87
2021/06/07 10:21:34;;;;;;;0.00;0.00;;;24.00;95.70;;;;;;5029378;28;20055;-88
2021/06/07 10:24:00;;;;;;;;;;;25.20;93.40;;;;;;5028153;28;20029;-88
2021/06/07 10:26:26;;;;;;;;;;;24.10;93.30;;;;;;5029719;28;19931;-88
2021/06/07 10:28:54;;;;;;;0.05;0.05;;;23.30;99.90;;;;;;5029083;28;19912;-87
2021/06/07 10:31:22;;;;;;;1.55;0.47;;;22.60;95.80;;;;;;5029242;28;20044;-88
2021/06/07 10:34:04;;;;;;;0.30;0.30;;;23.10;95.00;;;;;;5028742;28;20508;-88
2021/06/07 10:36:46;;;;;;;0.20;0.20;;;24.00;94.10;;;;;;5027957;28;20021;-88
2021/06/07 10:39:19;;;;;;;0.20;0.20;;;24.10;93.50;;;;;;5027921;28;20494;-89
2021/06/07 10:41:48;;;;;;;0.65;0.40;;;25.90;92.30;;;;;;5027895;28;20029;-88
2021/06/07 10:44:14;;;;;;;0.30;0.30;;;27.40;89.40;;;;;;5028812;28;20033;-88
2021/06/07 10:46:41;;;;;;;;;;;25.40;90.70;;;;;;5028377;28;20140;-88
2021/06/07 10:49:37;;;;;;;0.03;0.03;;;25.50;90.20;;;;;;5028972;28;19905;-88
2021/06/07 10:52:06;;;;;;;0.35;0.35;;;24.00;91.10;;;;;;5020417;28;20037;-89
2021/06/07 10:54:37;;;;;;;0.00;0.00;;;23.50;92.70;;;;;;5027539;28;20026;-89
2021/06/07 10:57:30;;;;;;;0.10;0.10;;;24.60;91.80;;;;;;5031750;28;20028;-88
2021/06/07 11:00:17;;;;;;;0.10;0.10;;;24.90;88.20;;;;;;5034391;28;20034;-89
2021/06/07 11:02:46;;;;;;;0.20;0.20;;;23.00;92.60;;;;;;5012036;28;20554;-89
2021/06/07 11:05:18;;;;;;;0.20;0.20;;;21.50;99.90;;;;;;4994953;28;20399;-88
2021/06/07 11:07:58;;;;;;;0.00;0.00;;;21.50;95.50;;;;;;4995241;28;20025;-88
2021/06/07 11:10:25;;;;;;;0.10;0.10;;;21.60;95.10;;;;;;5012472;28;20064;-88
2021/06/07 11:13:00;;;;;;;0.20;0.20;;;22.00;94.60;;;;;;5012863;28;20026;-88
2021/06/07 11:15:29;;;;;;;0.10;0.10;;;22.40;94.50;;;;;;4994955;28;20033;-88
2021/06/07 11:18:35;;;;;;;0.10;0.10;;;23.00;93.00;;;;;;4995244;28;20100;-88
2021/06/07 11:21:07;;;;;;;0.20;0.20;;;25.30;91.90;;;;;;5040351;28;20182;-88
2021/06/07 11:23:43;;;;;;;0.20;0.20;;;27.80;86.40;;;;;;5052171;28;20033;-88
2021/06/07 11:26:18;;;;;;;1.13;0.50;;;27.00;85.70;;;;;;5050807;28;20036;-89
2021/06/07 11:28:48;;;;;;;0.13;0.13;;;24.80;86.50;;;;;;5052233;28;20055;-88
2021/06/07 11:31:17;;;;;;;8.20;0.32;;;24.30;88.00;;;;;;5050771;28;20032;-88
2021/06/07 11:33:55;;;;;;;0.00;0.00;;;24.00;87.50;;;;;;5051763;28;20175;-89
2021/06/07 11:36:47;;;;;;;0.00;0.00;;;23.30;88.10;;;;;;5050757;28;20017;-88
2021/06/07 11:39:23;;;;;;;0.20;0.10;;;23.30;90.30;;;;;;5050658;28;20052;-87
2021/06/07 11:42:03;;;;;;;0.10;0.10;;;23.80;88.90;;;;;;5052206;28;20397;-87
2021/06/07 11:44:44;;;;;;;0.00;0.00;;;23.70;87.80;;;;;;5051572;28;20124;-87
2021/06/07 11:47:23;;;;;;;0.10;0.10;;;23.80;88.30;;;;;;5052029;28;20032;-87
2021/06/07 11:49:55;;;;;;;0.85;0.32;;;24.20;87.30;;;;;;5033984;28;20035;-87
2021/06/07 11:52:52;;;;;;;0.00;0.00;;;24.10;87.20;;;;;;5051651;28;20494;-87
2021/06/07 11:55:34;;;;;;;0.43;0.43;;;25.20;87.80;;;;;;5051603;28;20025;-89
2021/06/07 11:58:23;;;;;;;0.00;0.00;;;25.20;85.40;;;;;;5050688;28;20079;-89
2021/06/07 12:00:49;;;;;;;0.10;0.10;;;25.40;87.00;;;;;;5030107;28;20186;-90
2021/06/07 12:03:18;;;;;;;0.10;0.10;;;24.50;86.50;;;;;;5047305;28;20116;-89
2021/06/07 12:05:45;;;;;;;0.10;0.05;;;25.30;86.00;;;;;;5031629;28;20040;-89
2021/06/07 12:08:13;;;;;;;0.00;0.00;;;26.00;86.10;;;;;;5031534;28;20043;-89
2021/06/07 12:10:41;;;;;;;0.00;0.00;;;24.50;86.30;;;;;;5046824;28;20700;-89
2021/06/07 12:13:22;;;;;;;0.10;0.10;;;24.30;88.20;;;;;;5031726;28;20127;-89
2021/06/07 12:15:58;;;;;;;0.20;0.13;;;24.20;88.20;;;;;;5046838;28;20829;-89
2021/06/07 12:18:33;;;;;;;0.38;0.38;;;23.50;88.10;;;;;;5046581;28;20056;-88
2021/06/07 12:21:11;;;;;;;0.00;0.00;;;23.90;86.90;;;;;;5031467;28;20612;-89
2021/06/07 12:23:43;;;;;;;0.17;0.17;;;24.40;86.60;;;;;;5029686;28;20124;-88
2021/06/07 12:29:31;;;;;;;0.00;0.00;;;24.80;85.90;;;;;;5031357;28;20075;-89
2021/06/07 12:32:16;;;;;;;0.17;0.17;;;24.70;88.20;;;;;;5031006;28;20506;-88
2021/06/07 12:34:57;;;;;;;0.03;0.03;;;24.20;87.90;;;;;;5030665;28;20041;-88
2021/06/07 12:37:31;;;;;;;0.10;0.10;;;23.00;88.20;;;;;;5030915;28;20022;-88
2021/06/07 12:40:08;;;;;;;0.32;0.30;;;22.90;91.00;;;;;;5030597;28;20151;-87
2021/06/07 12:42:34;;;;;;;0.08;0.08;;;22.20;91.60;;;;;;5030741;28;20072;-89
2021/06/07 12:45:12;;;;;;;0.35;0.32;;;21.90;91.70;;;;;;5030836;28;20038;-89
2021/06/07 12:47:38;;;;;;;0.43;0.20;;;22.10;92.00;;;;;;5030563;28;20801;-89
2021/06/07 12:50:27;;;;;;;0.38;0.25;;;22.20;91.60;;;;;;5030643;28;20034;-89
2021/06/07 12:52:55;;;;;;;0.00;0.00;;;22.90;91.70;;;;;;5024659;28;20037;-88
2021/06/07 12:55:29;;;;;;;0.35;0.35;;;22.80;91.30;;;;;;5028994;28;20037;-89
2021/06/07 12:57:56;;;;;;;0.13;0.10;;;22.90;90.90;;;;;;5030288;28;20021;-89
2021/06/07 13:00:32;;;;;;;0.10;0.10;;;23.00;91.90;;;;;;5028190;28;20081;-88
2021/06/07 13:02:59;;;;;;;0.10;0.10;;;22.90;91.90;;;;;;5030125;28;20780;-89
2021/06/07 13:05:43;;;;;;;0.10;0.10;;;22.90;93.30;;;;;;5045812;28;20091;-89